Latest Coastal Weather Observations for Horn Island

IDQ60701

Issued at 1:12 pm EST Tuesday 26 May 2020 (issued every 10 minutes, with the page automatically refreshed every 10 minutes)

About coastal observations | Map of coastal stations | Coastal observations for QLD | Marine services | Other Formats
Station Details ID: 027058 Name: HORN ISLAND Lat: -10.58 Lon: 142.29 Height: 4.0 m
Data from the previous 72 hours. | See also: Recent months at Horn Island
Date/Time
EST
Wind Sea
Height
m
Swell Vis
km
Cloud Weather Temp
°C
Press
hPa
Rain since
9am
mm
Dir  Spd
kts
Gust
kts
Height
m
Period
s
Dir
26/01:00pm E 15 20 - - - - 10 Clear - 29.5 1014.0 0.0
26/12:30pm ESE 15 19 - - - - 10 - - 29.7 1014.4 0.0
26/12:00pm ESE 15 19 - - - - 10 - - 29.2 1014.9 0.0
26/11:30am ESE 13 17 - - - - 10 Partly cloudy - 29.3 1015.1 0.0
26/11:00am ESE 14 19 - - - - 10 Partly cloudy - 28.3 1015.6 0.0
26/10:30am SE 12 17 - - - - 10 Partly cloudy - 28.9 1015.7 0.0
26/10:00am ESE 11 15 - - - - 10 Cloudy - 28.1 1015.9 0.0
26/09:30am SE 10 14 - - - - 10 Partly cloudy - 27.1 1016.1 0.0
26/09:00am SE 8 12 - - - - 10 Cloudy - 27.1 1016.1 0.0
26/08:30am SE 7 9 - - - - 10 Partly cloudy - 26.3 1016.0 0.0
26/08:00am SE 7 11 - - - - 10 Cloudy - 25.8 1015.7 0.0
26/07:30am SE 7 9 - - - - 10 Partly cloudy - 25.5 1015.5 0.0
26/07:00am SE 7 9 - - - - 10 Cloudy - 25.2 1015.2 0.0
26/06:30am SSE 7 10 - - - - 10 Partly cloudy - 25.1 1015.0 0.0
26/06:00am SE 7 10 - - - - 10 Mostly clear - 25.1 1014.8 0.0
26/05:30am SE 8 11 - - - - 10 Partly cloudy - 25.5 1014.6 0.0
26/05:00am SE 8 11 - - - - 10 Partly cloudy - 25.6 1014.4 0.0
26/04:30am SE 9 13 - - - - 10 Cloudy - 25.6 1014.1 0.0
26/04:00am ESE 9 13 - - - - 10 Cloudy - 25.7 1014.0 0.0
26/03:30am SE 9 12 - - - - 10 Partly cloudy - 25.7 1014.1 0.0
26/03:00am SE 9 12 - - - - 10 Mostly cloudy - 25.6 1014.1 0.0
26/02:30am SE 10 15 - - - - 10 Partly cloudy - 25.7 1014.2 0.0
26/02:00am SE 9 13 - - - - 10 Partly cloudy - 25.9 1014.3 0.0
26/01:30am ESE 11 15 - - - - 10 Cloudy - 25.9 1014.5 0.0
26/01:00am SE 8 10 - - - - 10 Cloudy - 25.6 1014.6 0.0
26/12:30am SE 8 10 - - - - 10 Partly cloudy - 25.7 1014.8 0.0
26/12:00am SE 9 12 - - - - 10 Cloudy - 25.7 1015.0 0.0
 
Date/Time
EST
Wind Sea
Height
m
Swell Vis
km
Cloud Weather Temp
°C
Press
hPa
Rain since
9am
mm
Dir  Spd
kts
Gust
kts
Height
m
Period
s
Dir
25/11:30pm SE 9 14 - - - - 10 Cloudy - 25.6 1015.2 0.0
25/11:00pm SE 8 11 - - - - 10 Cloudy - 25.5 1015.4 0.0
25/10:30pm SE 9 13 - - - - 10 Cloudy - 25.5 1015.7 0.0
25/10:00pm SE 8 11 - - - - 10 Cloudy - 25.4 1015.6 0.0
25/09:30pm SE 9 12 - - - - 10 Cloudy - 25.5 1015.6 0.0
25/09:00pm SE 9 12 - - - - 10 Cloudy - 25.7 1015.5 0.0
25/08:30pm SSE 8 11 - - - - 10 Cloudy - 25.6 1015.3 0.0
25/08:00pm SE 9 13 - - - - 10 Cloudy - 25.7 1015.1 0.0
25/07:30pm SE 9 11 - - - - 10 Cloudy - 25.9 1014.7 0.0
25/07:00pm SE 9 12 - - - - 10 Cloudy - 26.0 1014.4 0.0
25/06:30pm ESE 11 16 - - - - 10 Cloudy - 25.9 1014.2 0.0
25/06:00pm ESE 10 13 - - - - 10 Cloudy - 26.0 1013.9 0.0
25/05:30pm ESE 11 14 - - - - 10 Partly cloudy - 26.2 1013.5 0.0
25/05:00pm ESE 11 14 - - - - 10 - - 26.9 1013.2 0.0
25/04:30pm ESE 11 14 - - - - 10 - - 27.2 1013.0 0.0
25/04:00pm E 12 15 - - - - 10 - - 27.5 1012.9 0.0
25/03:30pm E 12 15 - - - - 10 - - 28.0 1012.9 0.0
25/03:00pm E 12 15 - - - - 10 Mostly clear - 27.5 1013.2 0.0
25/02:30pm E 11 14 - - - - 10 Cloudy - 27.6 1013.5 0.0
25/02:00pm E 12 16 - - - - 10 Partly cloudy - 28.0 1013.8 0.0
25/01:30pm E 9 12 - - - - 10 - - 27.4 1014.1 0.0
25/01:00pm ESE 10 15 - - - - 10 - - 27.8 1014.5 0.0
25/12:30pm E 8 13 - - - - 10 - - 27.7 1014.9 0.0
25/12:00pm SE 9 12 - - - - 10 - - 27.2 1015.5 0.0
25/11:30am SSE 10 15 - - - - 10 - - 27.1 1015.9 0.0
25/11:00am SSE 10 14 - - - - 10 - - 26.4 1015.9 0.0
25/10:30am S 11 14 - - - - 10 - - 25.3 1016.3 0.0
25/10:00am S 12 17 - - - - 10 - - 25.3 1016.6 0.0
25/09:30am S 11 16 - - - - 10 Partly cloudy - 24.8 1016.8 0.0
25/09:00am S 12 17 - - - - 10 Partly cloudy - 24.5 1016.6 0.0
25/08:30am S 11 17 - - - - 10 - - 24.2 1016.2 0.0
25/08:00am SSW 11 16 - - - - 10 Partly cloudy - 23.9 1016.1 0.0
25/07:30am S 10 15 - - - - 10 Cloudy - 23.2 1016.0 0.0
25/07:00am S 9 14 - - - - 10 Partly cloudy - 23.0 1015.8 0.0
25/06:30am S 10 17 - - - - 10 Partly cloudy - 22.9 1015.5 0.0
25/06:00am S 10 14 - - - - 10 Cloudy - 23.3 1015.1 0.0
25/05:30am S 10 15 - - - - 10 Partly cloudy - 23.7 1014.7 0.0
25/05:00am S 9 11 - - - - 10 Cloudy - 23.8 1014.4 0.0
25/04:30am S 7 10 - - - - 10 Cloudy - 23.6 1014.0 0.0
25/04:00am S 6 9 - - - - 10 Partly cloudy - 23.4 1013.8 0.0
25/03:30am S 7 9 - - - - 10 - - 23.5 1013.7 0.0
25/03:00am S 6 9 - - - - 10 Partly cloudy - 23.6 1013.7 0.0
25/02:30am S 5 7 - - - - 10 - - 23.4 1013.8 0.0
25/02:00am SSE 4 6 - - - - 10 - - 23.6 1014.0 0.0
25/01:30am SSE 3 5 - - - - 10 - - 23.7 1014.1 0.0
25/01:00am SSE 5 7 - - - - 10 - - 23.9 1014.2 0.0
25/12:30am S 4 5 - - - - 10 - - 23.7 1014.3 0.0
25/12:00am SSE 4 5 - - - - 10 Cloudy - 23.9 1014.5 0.0
 
Date/Time
EST
Wind Sea
Height
m
Swell Vis
km
Cloud Weather Temp
°C
Press
hPa
Rain since
9am
mm
Dir  Spd
kts
Gust
kts
Height
m
Period
s
Dir
24/11:30pm SSE 4 6 - - - - 10 - - 23.9 1014.7 0.0
24/11:00pm SSE 5 7 - - - - 10 Partly cloudy - 23.9 1015.0 0.0
24/10:30pm SSE 4 7 - - - - 10 Partly cloudy - 23.7 1015.2 0.0
24/10:00pm ESE 5 6 - - - - 10 Partly cloudy - 23.4 1015.4 0.0
24/09:30pm SE 5 7 - - - - 10 Partly cloudy - 23.3 1015.3 0.0
24/09:15pm SE 7 9 - - - - 10 Partly cloudy - 22.9 1015.2 0.0
24/09:00pm SE 7 8 - - - - 5 Cloudy Drizzle 23.0 1015.2 0.0
24/08:30pm SE 7 11 - - - - 4 Partly cloudy - 23.2 1014.9 0.0
24/08:09pm SSE 8 13 - - - - 5 Partly cloudy - 23.9 1014.6 0.0
24/08:00pm S 6 8 - - - - 10 Cloudy - 24.8 1014.6 0.0
24/07:30pm SSW 6 7 - - - - 10 Partly cloudy - 24.7 1014.2 0.0
24/07:00pm SW 6 7 - - - - 10 Partly cloudy - 25.0 1014.1 0.0
24/06:30pm WSW 4 6 - - - - 10 Partly cloudy - 25.3 1013.9 0.0
24/06:00pm ESE 7 9 - - - - 10 Cloudy - 25.7 1013.5 0.0
24/05:30pm ESE 7 9 - - - - 10 Partly cloudy - 25.8 1013.2 0.0
24/05:00pm E 8 11 - - - - 10 Partly cloudy - 26.3 1012.8 0.0
24/04:30pm E 10 13 - - - - 10 - - 26.3 1012.2 0.0
24/04:00pm E 10 14 - - - - 10 - - 26.8 1012.0 0.0
24/03:30pm E 9 12 - - - - 10 - - 27.6 1012.1 0.0
24/03:00pm E 9 12 - - - - 10 - - 27.3 1012.1 0.0
24/02:30pm ENE 9 13 - - - - 10 - - 27.1 1012.3 0.0
24/02:00pm E 9 13 - - - - 10 - - 27.6 1012.6 0.0
24/01:30pm ESE 7 10 - - - - 10 Partly cloudy - 27.5 1013.0 0.0
24/01:00pm SE 9 13 - - - - 10 Partly cloudy - 26.8 1013.4 0.0
24/12:30pm SE 10 13 - - - - 10 Partly cloudy - 27.3 1014.0 0.0
24/12:00pm SSE 7 12 - - - - 10 Cloudy - 25.8 1014.6 0.0
24/11:30am SSE 7 9 - - - - 10 - - 25.9 1015.1 0.0
24/11:00am S 7 10 - - - - 10 - - 25.2 1015.4 0.0
24/10:30am SSW 11 13 - - - - 10 - - 25.1 1015.5 0.0
24/10:00am S 10 13 - - - - 10 - - 25.5 1015.4 0.0
24/09:30am S 10 13 - - - - 10 - - 24.6 1015.4 0.0
24/09:00am S 9 13 - - - - 10 Cloudy - 24.3 1015.3 0.0
24/08:30am SSW 9 13 - - - - 10 Partly cloudy - 23.7 1014.9 0.0
24/08:00am S 9 13 - - - - 10 Partly cloudy - 22.9 1014.4 0.0
24/07:30am S 10 14 - - - - 10 Cloudy - 23.1 1014.1 0.0
24/07:00am S 9 13 - - - - 10 Cloudy - 22.6 1013.7 0.0
24/06:30am S 7 10 - - - - 10 Partly cloudy - 22.3 1013.4 0.0
24/06:00am SSW 7 11 - - - - 10 Cloudy - 22.6 1013.2 0.0
24/05:30am S 7 10 - - - - 10 Partly cloudy - 23.0 1012.8 0.0
24/05:00am SSW 6 8 - - - - 10 Partly cloudy - 23.1 1012.8 0.0
24/04:30am SSW 5 6 - - - - 10 Cloudy - 23.2 1012.8 0.0
24/04:00am S 4 5 - - - - 10 Partly cloudy - 23.2 1012.9 0.0
24/03:30am S 6 8 - - - - 10 Partly cloudy - 23.8 1012.8 0.0
24/03:00am SSW 4 6 - - - - 10 Cloudy - 23.8 1013.0 0.0
24/02:30am S 3 5 - - - - 10 Partly cloudy - 23.6 1012.9 0.0
24/02:00am S 3 4 - - - - 10 Partly cloudy - 23.4 1013.0 0.0
24/01:30am S 4 5 - - - - 10 Partly cloudy - 23.9 1012.9 0.0
24/01:00am S 5 7 - - - - 10 Cloudy - 24.1 1013.3 0.0
24/12:30am S 6 9 - - - - 10 Partly cloudy - 24.3 1013.4 0.0
24/12:00am SSE 8 11 - - - - 10 Cloudy - 24.5 1013.6 0.0
 
Date/Time
EST
Wind Sea
Height
m
Swell Vis
km
Cloud Weather Temp
°C
Press
hPa
Rain since
9am
mm
Dir  Spd
kts
Gust
kts
Height
m
Period
s
Dir
23/11:30pm S 7 9 - - - - 10 Cloudy - 24.7 1013.8 0.0
23/11:00pm S 6 9 - - - - 10 Partly cloudy - 24.6 1013.9 0.0
23/10:30pm S 9 15 - - - - 10 Cloudy - 24.8 1013.8 0.0
23/10:00pm S 7 9 - - - - 10 Cloudy - 24.8 1013.5 0.0
23/09:30pm S 8 13 - - - - 10 Cloudy - 24.8 1013.6 0.0
23/09:00pm S 10 16 - - - - 10 Cloudy - 24.8 1013.3 0.0
23/08:30pm S 10 18 - - - - 10 Cloudy - 24.9 1013.1 0.0
23/08:00pm S 9 13 - - - - 10 Cloudy - 24.8 1012.8 0.0
23/07:30pm S 9 11 - - - - 10 Cloudy - 24.7 1012.5 0.0
23/07:00pm S 12 17 - - - - 10 Partly cloudy - 24.5 1012.1 0.0
23/06:30pm S 12 16 - - - - 10 Partly cloudy - 24.7 1011.9 0.0
23/06:00pm S 11 19 - - - - 10 Cloudy - 24.8 1011.5 0.0
23/05:30pm S 13 18 - - - - 10 Cloudy - 24.8 1011.0 0.0
23/05:00pm S 12 17 - - - - 10 Partly cloudy - 24.8 1010.7 0.0
23/04:30pm S 13 20 - - - - 10 Partly cloudy - 25.1 1010.5 0.0
23/04:00pm S 12 17 - - - - 10 Partly cloudy - 25.6 1010.3 0.0
23/03:30pm S 9 15 - - - - 10 Partly cloudy - 25.9 1010.4 0.0
23/03:00pm S 11 19 - - - - 10 Cloudy - 26.2 1010.4 0.0
23/02:30pm S 11 17 - - - - 10 Partly cloudy - 26.9 1010.7 0.0
23/02:00pm S 13 18 - - - - 10 Partly cloudy - 26.8 1010.9 0.0
23/01:30pm S 14 21 - - - - 10 Cloudy - 26.4 1011.2 0.0

Other formats

Comma delimited format used in spreadsheet applications
http://www.bom.gov.au/fwo/IDQ60701/IDQ60701.94174.axf

JavaScript Object Notation format (JSON) in row-major order
http://www.bom.gov.au/fwo/IDQ60701/IDQ60701.94174.json

Data quality

Most of these data are generated automatically and are frequently updated. Quality checks on data are not normally performed. It is possible for incorrect values to appear. Refer to information at About Latest Weather Observations and please check the disclaimer before using these data.